sensor_id;sensor_type;location;lat;lon;timestamp;P1;durP1;ratioP1;P2;durP2;ratioP2
8337;SDS011;4206;48.634;9.516;2023-05-16T00:00:39;6.60;;;5.70;;
8337;SDS011;4206;48.634;9.516;2023-05-16T00:03:06;6.57;;;5.13;;
8337;SDS011;4206;48.634;9.516;2023-05-16T00:05:33;6.10;;;5.50;;
8337;SDS011;4206;48.634;9.516;2023-05-16T00:08:01;7.07;;;5.53;;
8337;SDS011;4206;48.634;9.516;2023-05-16T00:10:28;6.13;;;4.87;;
8337;SDS011;4206;48.634;9.516;2023-05-16T00:12:55;6.90;;;5.07;;
8337;SDS011;4206;48.634;9.516;2023-05-16T00:15:22;6.67;;;5.10;;
8337;SDS011;4206;48.634;9.516;2023-05-16T00:17:50;8.23;;;5.83;;
8337;SDS011;4206;48.634;9.516;2023-05-16T00:20:17;9.67;;;5.20;;
8337;SDS011;4206;48.634;9.516;2023-05-16T00:22:48;6.27;;;5.30;;
8337;SDS011;4206;48.634;9.516;2023-05-16T00:25:15;6.43;;;5.37;;
8337;SDS011;4206;48.634;9.516;2023-05-16T00:27:42;6.27;;;5.10;;
8337;SDS011;4206;48.634;9.516;2023-05-16T00:30:08;5.83;;;5.07;;
8337;SDS011;4206;48.634;9.516;2023-05-16T00:32:36;8.00;;;4.67;;
8337;SDS011;4206;48.634;9.516;2023-05-16T00:35:03;5.80;;;5.20;;
8337;SDS011;4206;48.634;9.516;2023-05-16T00:37:30;6.67;;;4.90;;
8337;SDS011;4206;48.634;9.516;2023-05-16T00:39:57;6.17;;;4.83;;
8337;SDS011;4206;48.634;9.516;2023-05-16T00:42:24;5.37;;;4.37;;
8337;SDS011;4206;48.634;9.516;2023-05-16T00:44:51;7.10;;;5.07;;
8337;SDS011;4206;48.634;9.516;2023-05-16T00:47:18;7.43;;;5.47;;
8337;SDS011;4206;48.634;9.516;2023-05-16T00:49:45;6.33;;;4.73;;
8337;SDS011;4206;48.634;9.516;2023-05-16T00:52:13;8.87;;;5.47;;
8337;SDS011;4206;48.634;9.516;2023-05-16T00:54:40;5.43;;;4.73;;
8337;SDS011;4206;48.634;9.516;2023-05-16T00:57:07;5.73;;;5.00;;
8337;SDS011;4206;48.634;9.516;2023-05-16T00:59:34;5.97;;;4.90;;
8337;SDS011;4206;48.634;9.516;2023-05-16T01:02:01;4.50;;;4.10;;
8337;SDS011;4206;48.634;9.516;2023-05-16T01:04:28;7.53;;;4.30;;
8337;SDS011;4206;48.634;9.516;2023-05-16T01:06:57;7.80;;;5.57;;
8337;SDS011;4206;48.634;9.516;2023-05-16T01:09:24;4.80;;;4.40;;
8337;SDS011;4206;48.634;9.516;2023-05-16T01:17:28;6.47;;;4.50;;
8337;SDS011;4206;48.634;9.516;2023-05-16T01:28:37;15.43;;;4.60;;
8337;SDS011;4206;48.634;9.516;2023-05-16T01:31:05;5.43;;;4.87;;
8337;SDS011;4206;48.634;9.516;2023-05-16T01:33:32;5.80;;;5.20;;
8337;SDS011;4206;48.634;9.516;2023-05-16T01:41:17;5.50;;;4.80;;
8337;SDS011;4206;48.634;9.516;2023-05-16T01:43:48;5.43;;;4.53;;
8337;SDS011;4206;48.634;9.516;2023-05-16T01:46:25;5.50;;;4.33;;
8337;SDS011;4206;48.634;9.516;2023-05-16T01:48:57;4.43;;;4.03;;
8337;SDS011;4206;48.634;9.516;2023-05-16T01:51:32;4.43;;;4.03;;
8337;SDS011;4206;48.634;9.516;2023-05-16T01:54:04;4.40;;;3.90;;
8337;SDS011;4206;48.634;9.516;2023-05-16T01:56:35;5.70;;;4.90;;
8337;SDS011;4206;48.634;9.516;2023-05-16T01:59:03;4.77;;;4.07;;
8337;SDS011;4206;48.634;9.516;2023-05-16T02:01:31;5.03;;;4.57;;
8337;SDS011;4206;48.634;9.516;2023-05-16T02:04:00;5.47;;;4.80;;
8337;SDS011;4206;48.634;9.516;2023-05-16T02:06:27;5.87;;;4.60;;
8337;SDS011;4206;48.634;9.516;2023-05-16T02:08:54;5.60;;;4.77;;
8337;SDS011;4206;48.634;9.516;2023-05-16T02:11:21;5.80;;;4.90;;
8337;SDS011;4206;48.634;9.516;2023-05-16T02:13:48;5.57;;;4.97;;
8337;SDS011;4206;48.634;9.516;2023-05-16T02:16:15;4.90;;;4.40;;
8337;SDS011;4206;48.634;9.516;2023-05-16T02:18:42;7.00;;;4.90;;
8337;SDS011;4206;48.634;9.516;2023-05-16T02:21:11;7.20;;;4.33;;
8337;SDS011;4206;48.634;9.516;2023-05-16T02:23:38;7.90;;;4.93;;
8337;SDS011;4206;48.634;9.516;2023-05-16T02:26:05;7.20;;;5.10;;
8337;SDS011;4206;48.634;9.516;2023-05-16T02:28:32;5.93;;;4.63;;
8337;SDS011;4206;48.634;9.516;2023-05-16T02:30:59;5.00;;;4.47;;
8337;SDS011;4206;48.634;9.516;2023-05-16T02:33:27;5.10;;;4.53;;
8337;SDS011;4206;48.634;9.516;2023-05-16T02:35:54;4.93;;;4.43;;
8337;SDS011;4206;48.634;9.516;2023-05-16T02:38:21;4.80;;;4.33;;
8337;SDS011;4206;48.634;9.516;2023-05-16T02:40:49;5.90;;;5.03;;
8337;SDS011;4206;48.634;9.516;2023-05-16T02:43:16;6.67;;;5.10;;
8337;SDS011;4206;48.634;9.516;2023-05-16T02:45:43;7.77;;;5.50;;
8337;SDS011;4206;48.634;9.516;2023-05-16T02:48:10;7.53;;;4.60;;
8337;SDS011;4206;48.634;9.516;2023-05-16T02:50:37;7.13;;;4.77;;
8337;SDS011;4206;48.634;9.516;2023-05-16T02:53:05;5.63;;;4.70;;
8337;SDS011;4206;48.634;9.516;2023-05-16T02:55:32;6.00;;;4.90;;
8337;SDS011;4206;48.634;9.516;2023-05-16T02:57:59;6.63;;;5.33;;
8337;SDS011;4206;48.634;9.516;2023-05-16T04:01:01;6.47;;;5.20;;
8337;SDS011;4206;48.634;9.516;2023-05-16T04:03:28;7.50;;;6.10;;
8337;SDS011;4206;48.634;9.516;2023-05-16T04:05:56;11.70;;;5.50;;
8337;SDS011;4206;48.634;9.516;2023-05-16T04:08:23;9.00;;;6.07;;
8337;SDS011;4206;48.634;9.516;2023-05-16T04:10:50;11.43;;;7.97;;
8337;SDS011;4206;48.634;9.516;2023-05-16T04:13:17;13.73;;;7.40;;
8337;SDS011;4206;48.634;9.516;2023-05-16T04:15:44;7.53;;;6.40;;
8337;SDS011;4206;48.634;9.516;2023-05-16T04:18:11;6.30;;;5.37;;
8337;SDS011;4206;48.634;9.516;2023-05-16T04:20:40;6.20;;;5.23;;
8337;SDS011;4206;48.634;9.516;2023-05-16T04:23:08;6.07;;;5.30;;
8337;SDS011;4206;48.634;9.516;2023-05-16T04:25:37;6.17;;;5.47;;
8337;SDS011;4206;48.634;9.516;2023-05-16T04:28:04;7.27;;;5.00;;
8337;SDS011;4206;48.634;9.516;2023-05-16T04:30:31;7.40;;;5.87;;
8337;SDS011;4206;48.634;9.516;2023-05-16T04:33:00;7.70;;;5.87;;
8337;SDS011;4206;48.634;9.516;2023-05-16T04:35:27;6.87;;;5.90;;
8337;SDS011;4206;48.634;9.516;2023-05-16T04:37:54;8.07;;;6.30;;
8337;SDS011;4206;48.634;9.516;2023-05-16T04:40:21;7.93;;;6.07;;
8337;SDS011;4206;48.634;9.516;2023-05-16T04:42:49;10.93;;;8.40;;
8337;SDS011;4206;48.634;9.516;2023-05-16T04:45:17;12.93;;;9.80;;
8337;SDS011;4206;48.634;9.516;2023-05-16T04:47:44;19.10;;;12.33;;
8337;SDS011;4206;48.634;9.516;2023-05-16T04:50:11;20.63;;;14.67;;
8337;SDS011;4206;48.634;9.516;2023-05-16T04:59:54;16.73;;;10.37;;
8337;SDS011;4206;48.634;9.516;2023-05-16T05:02:21;14.97;;;10.67;;
8337;SDS011;4206;48.634;9.516;2023-05-16T05:04:49;14.93;;;11.17;;
8337;SDS011;4206;48.634;9.516;2023-05-16T05:07:16;17.13;;;11.70;;
8337;SDS011;4206;48.634;9.516;2023-05-16T05:09:43;15.33;;;11.23;;
8337;SDS011;4206;48.634;9.516;2023-05-16T05:12:09;14.33;;;11.10;;
8337;SDS011;4206;48.634;9.516;2023-05-16T05:14:36;15.50;;;11.50;;
8337;SDS011;4206;48.634;9.516;2023-05-16T05:17:03;22.63;;;14.57;;
8337;SDS011;4206;48.634;9.516;2023-05-16T05:19:31;22.70;;;14.90;;
8337;SDS011;4206;48.634;9.516;2023-05-16T05:21:58;20.33;;;14.40;;
8337;SDS011;4206;48.634;9.516;2023-05-16T05:24:25;26.53;;;17.23;;
8337;SDS011;4206;48.634;9.516;2023-05-16T05:26:52;24.67;;;16.90;;
8337;SDS011;4206;48.634;9.516;2023-05-16T05:29:19;23.70;;;16.90;;
8337;SDS011;4206;48.634;9.516;2023-05-16T05:31:46;27.40;;;18.00;;
8337;SDS011;4206;48.634;9.516;2023-05-16T05:34:13;27.13;;;17.63;;
8337;SDS011;4206;48.634;9.516;2023-05-16T05:36:40;28.40;;;19.80;;
8337;SDS011;4206;48.634;9.516;2023-05-16T05:39:07;28.77;;;19.63;;
8337;SDS011;4206;48.634;9.516;2023-05-16T05:41:34;29.10;;;19.50;;
8337;SDS011;4206;48.634;9.516;2023-05-16T05:44:01;29.60;;;19.53;;
8337;SDS011;4206;48.634;9.516;2023-05-16T05:46:28;31.73;;;20.10;;
8337;SDS011;4206;48.634;9.516;2023-05-16T05:48:55;35.33;;;19.63;;
8337;SDS011;4206;48.634;9.516;2023-05-16T05:51:22;30.90;;;19.37;;
8337;SDS011;4206;48.634;9.516;2023-05-16T05:53:49;31.90;;;20.13;;
8337;SDS011;4206;48.634;9.516;2023-05-16T05:56:15;29.00;;;19.17;;
8337;SDS011;4206;48.634;9.516;2023-05-16T05:58:42;27.73;;;19.37;;
8337;SDS011;4206;48.634;9.516;2023-05-16T06:01:10;28.00;;;19.93;;
8337;SDS011;4206;48.634;9.516;2023-05-16T06:03:37;28.60;;;20.30;;
8337;SDS011;4206;48.634;9.516;2023-05-16T06:06:04;30.97;;;20.60;;
8337;SDS011;4206;48.634;9.516;2023-05-16T06:08:31;29.73;;;20.63;;
8337;SDS011;4206;48.634;9.516;2023-05-16T06:10:58;34.83;;;21.50;;
8337;SDS011;4206;48.634;9.516;2023-05-16T06:13:26;30.30;;;21.80;;
8337;SDS011;4206;48.634;9.516;2023-05-16T06:15:53;33.07;;;23.20;;
8337;SDS011;4206;48.634;9.516;2023-05-16T06:18:20;32.97;;;22.77;;
8337;SDS011;4206;48.634;9.516;2023-05-16T06:20:47;33.30;;;21.83;;
8337;SDS011;4206;48.634;9.516;2023-05-16T06:23:14;30.40;;;21.80;;
8337;SDS011;4206;48.634;9.516;2023-05-16T06:25:41;34.57;;;22.90;;
8337;SDS011;4206;48.634;9.516;2023-05-16T06:28:07;34.20;;;21.80;;
8337;SDS011;4206;48.634;9.516;2023-05-16T06:30:34;34.90;;;22.80;;
8337;SDS011;4206;48.634;9.516;2023-05-16T06:33:01;28.83;;;22.30;;
8337;SDS011;4206;48.634;9.516;2023-05-16T06:35:28;34.70;;;22.93;;
8337;SDS011;4206;48.634;9.516;2023-05-16T06:37:55;32.17;;;21.37;;
8337;SDS011;4206;48.634;9.516;2023-05-16T06:40:22;37.73;;;23.30;;
8337;SDS011;4206;48.634;9.516;2023-05-16T06:42:49;34.30;;;21.83;;
8337;SDS011;4206;48.634;9.516;2023-05-16T06:45:16;33.13;;;21.80;;
8337;SDS011;4206;48.634;9.516;2023-05-16T06:47:42;32.63;;;22.27;;
8337;SDS011;4206;48.634;9.516;2023-05-16T06:50:09;40.17;;;23.37;;
8337;SDS011;4206;48.634;9.516;2023-05-16T06:52:36;39.00;;;23.00;;
8337;SDS011;4206;48.634;9.516;2023-05-16T06:55:03;29.17;;;20.50;;
8337;SDS011;4206;48.634;9.516;2023-05-16T06:57:31;32.40;;;22.40;;
8337;SDS011;4206;48.634;9.516;2023-05-16T06:59:58;33.50;;;22.40;;
8337;SDS011;4206;48.634;9.516;2023-05-16T07:02:24;35.03;;;22.47;;
8337;SDS011;4206;48.634;9.516;2023-05-16T07:04:52;30.10;;;21.80;;
8337;SDS011;4206;48.634;9.516;2023-05-16T07:07:19;29.13;;;21.00;;
8337;SDS011;4206;48.634;9.516;2023-05-16T07:09:46;33.10;;;21.63;;
8337;SDS011;4206;48.634;9.516;2023-05-16T07:12:12;29.37;;;21.20;;
8337;SDS011;4206;48.634;9.516;2023-05-16T07:14:39;33.93;;;21.37;;
8337;SDS011;4206;48.634;9.516;2023-05-16T07:17:07;24.07;;;18.50;;
8337;SDS011;4206;48.634;9.516;2023-05-16T07:19:34;28.53;;;19.43;;
8337;SDS011;4206;48.634;9.516;2023-05-16T07:22:01;32.03;;;19.90;;
8337;SDS011;4206;48.634;9.516;2023-05-16T07:24:28;25.87;;;18.97;;
8337;SDS011;4206;48.634;9.516;2023-05-16T07:26:54;25.77;;;19.00;;
8337;SDS011;4206;48.634;9.516;2023-05-16T07:29:21;24.33;;;19.03;;
8337;SDS011;4206;48.634;9.516;2023-05-16T07:31:48;27.43;;;17.83;;
8337;SDS011;4206;48.634;9.516;2023-05-16T07:34:15;26.80;;;17.50;;
8337;SDS011;4206;48.634;9.516;2023-05-16T07:36:42;24.77;;;17.50;;
8337;SDS011;4206;48.634;9.516;2023-05-16T07:39:11;25.43;;;17.50;;
8337;SDS011;4206;48.634;9.516;2023-05-16T07:41:38;25.20;;;16.93;;
8337;SDS011;4206;48.634;9.516;2023-05-16T07:44:05;21.30;;;16.17;;
8337;SDS011;4206;48.634;9.516;2023-05-16T07:46:32;21.70;;;15.40;;
8337;SDS011;4206;48.634;9.516;2023-05-16T07:48:59;21.87;;;14.80;;
8337;SDS011;4206;48.634;9.516;2023-05-16T07:51:26;23.57;;;16.03;;
8337;SDS011;4206;48.634;9.516;2023-05-16T07:53:54;22.30;;;16.70;;
8337;SDS011;4206;48.634;9.516;2023-05-16T07:56:20;18.00;;;14.27;;
8337;SDS011;4206;48.634;9.516;2023-05-16T07:58:48;21.93;;;14.30;;
8337;SDS011;4206;48.634;9.516;2023-05-16T08:01:15;20.20;;;14.67;;
8337;SDS011;4206;48.634;9.516;2023-05-16T08:03:42;21.87;;;15.27;;
8337;SDS011;4206;48.634;9.516;2023-05-16T08:06:09;19.93;;;14.33;;
8337;SDS011;4206;48.634;9.516;2023-05-16T08:08:36;22.80;;;12.70;;
8337;SDS011;4206;48.634;9.516;2023-05-16T08:11:03;21.00;;;13.10;;
8337;SDS011;4206;48.634;9.516;2023-05-16T08:13:30;15.40;;;12.50;;
8337;SDS011;4206;48.634;9.516;2023-05-16T08:15:57;18.07;;;13.17;;
8337;SDS011;4206;48.634;9.516;2023-05-16T08:18:25;16.40;;;12.27;;
8337;SDS011;4206;48.634;9.516;2023-05-16T08:20:51;16.47;;;12.70;;
8337;SDS011;4206;48.634;9.516;2023-05-16T08:23:18;22.00;;;13.13;;
8337;SDS011;4206;48.634;9.516;2023-05-16T08:25:46;16.90;;;12.30;;
8337;SDS011;4206;48.634;9.516;2023-05-16T08:28:13;18.43;;;12.40;;
8337;SDS011;4206;48.634;9.516;2023-05-16T08:30:40;18.03;;;13.23;;
8337;SDS011;4206;48.634;9.516;2023-05-16T08:33:09;17.97;;;11.53;;
8337;SDS011;4206;48.634;9.516;2023-05-16T08:35:36;16.20;;;12.20;;
8337;SDS011;4206;48.634;9.516;2023-05-16T08:38:03;18.37;;;12.83;;
8337;SDS011;4206;48.634;9.516;2023-05-16T08:40:30;15.03;;;12.00;;
8337;SDS011;4206;48.634;9.516;2023-05-16T08:42:57;15.63;;;10.83;;
8337;SDS011;4206;48.634;9.516;2023-05-16T08:45:24;21.17;;;10.37;;
8337;SDS011;4206;48.634;9.516;2023-05-16T08:47:53;15.80;;;11.47;;
8337;SDS011;4206;48.634;9.516;2023-05-16T08:50:21;14.10;;;11.10;;
8337;SDS011;4206;48.634;9.516;2023-05-16T08:52:50;13.27;;;10.70;;
8337;SDS011;4206;48.634;9.516;2023-05-16T08:55:19;15.97;;;11.00;;
8337;SDS011;4206;48.634;9.516;2023-05-16T08:57:49;15.27;;;11.07;;
8337;SDS011;4206;48.634;9.516;2023-05-16T09:00:17;15.07;;;9.90;;
8337;SDS011;4206;48.634;9.516;2023-05-16T09:02:45;15.50;;;11.10;;
8337;SDS011;4206;48.634;9.516;2023-05-16T09:05:13;14.00;;;10.93;;
8337;SDS011;4206;48.634;9.516;2023-05-16T09:07:41;14.40;;;11.10;;
8337;SDS011;4206;48.634;9.516;2023-05-16T09:10:09;16.33;;;11.13;;
8337;SDS011;4206;48.634;9.516;2023-05-16T09:12:38;13.00;;;10.77;;
8337;SDS011;4206;48.634;9.516;2023-05-16T09:15:06;14.90;;;10.17;;
8337;SDS011;4206;48.634;9.516;2023-05-16T09:20:08;12.77;;;10.43;;
8337;SDS011;4206;48.634;9.516;2023-05-16T09:22:37;13.57;;;10.50;;
8337;SDS011;4206;48.634;9.516;2023-05-16T09:25:04;14.60;;;11.50;;
8337;SDS011;4206;48.634;9.516;2023-05-16T09:27:45;15.37;;;11.00;;
8337;SDS011;4206;48.634;9.516;2023-05-16T09:30:14;14.83;;;10.60;;
8337;SDS011;4206;48.634;9.516;2023-05-16T09:32:42;14.80;;;10.30;;
8337;SDS011;4206;48.634;9.516;2023-05-16T09:35:14;13.97;;;11.37;;
8337;SDS011;4206;48.634;9.516;2023-05-16T09:38:02;23.83;;;12.10;;
8337;SDS011;4206;48.634;9.516;2023-05-16T09:40:29;14.00;;;10.67;;
8337;SDS011;4206;48.634;9.516;2023-05-16T09:43:04;16.00;;;11.97;;
8337;SDS011;4206;48.634;9.516;2023-05-16T09:45:33;14.77;;;11.50;;
8337;SDS011;4206;48.634;9.516;2023-05-16T09:48:04;14.10;;;11.27;;
8337;SDS011;4206;48.634;9.516;2023-05-16T09:50:33;16.90;;;11.80;;
8337;SDS011;4206;48.634;9.516;2023-05-16T09:53:01;17.03;;;11.87;;
8337;SDS011;4206;48.634;9.516;2023-05-16T09:55:29;15.23;;;11.10;;
8337;SDS011;4206;48.634;9.516;2023-05-16T09:57:57;15.53;;;11.47;;
8337;SDS011;4206;48.634;9.516;2023-05-16T10:00:32;17.97;;;12.60;;
8337;SDS011;4206;48.634;9.516;2023-05-16T10:03:00;14.30;;;11.47;;
8337;SDS011;4206;48.634;9.516;2023-05-16T10:05:31;14.53;;;11.70;;
8337;SDS011;4206;48.634;9.516;2023-05-16T10:07:59;13.83;;;12.00;;
8337;SDS011;4206;48.634;9.516;2023-05-16T10:10:28;15.93;;;12.50;;
8337;SDS011;4206;48.634;9.516;2023-05-16T10:12:57;20.63;;;11.60;;
8337;SDS011;4206;48.634;9.516;2023-05-16T10:15:26;16.27;;;11.87;;
8337;SDS011;4206;48.634;9.516;2023-05-16T10:17:55;13.17;;;11.23;;
8337;SDS011;4206;48.634;9.516;2023-05-16T10:20:25;13.73;;;11.23;;
8337;SDS011;4206;48.634;9.516;2023-05-16T10:22:53;13.00;;;10.70;;
8337;SDS011;4206;48.634;9.516;2023-05-16T10:25:24;13.60;;;11.03;;
8337;SDS011;4206;48.634;9.516;2023-05-16T10:27:58;12.30;;;10.40;;
8337;SDS011;4206;48.634;9.516;2023-05-16T10:30:26;15.87;;;11.23;;
8337;SDS011;4206;48.634;9.516;2023-05-16T10:32:53;14.10;;;11.23;;
8337;SDS011;4206;48.634;9.516;2023-05-16T10:35:23;14.90;;;11.33;;
8337;SDS011;4206;48.634;9.516;2023-05-16T10:37:50;14.20;;;11.40;;
8337;SDS011;4206;48.634;9.516;2023-05-16T10:40:18;13.70;;;10.80;;
8337;SDS011;4206;48.634;9.516;2023-05-16T10:42:53;15.70;;;10.93;;
8337;SDS011;4206;48.634;9.516;2023-05-16T10:45:21;12.43;;;10.07;;
8337;SDS011;4206;48.634;9.516;2023-05-16T10:47:52;14.43;;;11.13;;
8337;SDS011;4206;48.634;9.516;2023-05-16T10:53:14;13.00;;;10.13;;
8337;SDS011;4206;48.634;9.516;2023-05-16T10:55:50;14.60;;;9.20;;
8337;SDS011;4206;48.634;9.516;2023-05-16T11:01:44;9.90;;;8.60;;
8337;SDS011;4206;48.634;9.516;2023-05-16T11:14:22;13.07;;;9.37;;
8337;SDS011;4206;48.634;9.516;2023-05-16T11:16:51;11.73;;;8.23;;
8337;SDS011;4206;48.634;9.516;2023-05-16T11:19:33;11.20;;;8.83;;
8337;SDS011;4206;48.634;9.516;2023-05-16T11:29:53;11.10;;;8.37;;
8337;SDS011;4206;48.634;9.516;2023-05-16T11:32:27;9.87;;;8.37;;
8337;SDS011;4206;48.634;9.516;2023-05-16T11:34:55;9.00;;;7.60;;
8337;SDS011;4206;48.634;9.516;2023-05-16T11:37:23;10.70;;;8.70;;
8337;SDS011;4206;48.634;9.516;2023-05-16T11:39:50;9.63;;;8.63;;
8337;SDS011;4206;48.634;9.516;2023-05-16T11:42:17;9.97;;;8.20;;
8337;SDS011;4206;48.634;9.516;2023-05-16T11:44:44;11.77;;;8.80;;
8337;SDS011;4206;48.634;9.516;2023-05-16T11:47:11;10.07;;;8.60;;
8337;SDS011;4206;48.634;9.516;2023-05-16T11:49:38;11.23;;;8.90;;
8337;SDS011;4206;48.634;9.516;2023-05-16T11:52:06;10.57;;;8.40;;
8337;SDS011;4206;48.634;9.516;2023-05-16T11:54:34;10.53;;;8.00;;
8337;SDS011;4206;48.634;9.516;2023-05-16T11:57:02;9.80;;;8.30;;
8337;SDS011;4206;48.634;9.516;2023-05-16T11:59:29;9.90;;;8.57;;
8337;SDS011;4206;48.634;9.516;2023-05-16T12:01:56;10.13;;;8.00;;
8337;SDS011;4206;48.634;9.516;2023-05-16T12:04:23;10.80;;;8.47;;
8337;SDS011;4206;48.634;9.516;2023-05-16T12:06:58;10.30;;;8.20;;
8337;SDS011;4206;48.634;9.516;2023-05-16T12:09:26;9.10;;;7.20;;
8337;SDS011;4206;48.634;9.516;2023-05-16T12:11:53;10.17;;;8.03;;
8337;SDS011;4206;48.634;9.516;2023-05-16T12:14:21;9.27;;;7.00;;
8337;SDS011;4206;48.634;9.516;2023-05-16T12:16:49;8.27;;;7.37;;
8337;SDS011;4206;48.634;9.516;2023-05-16T12:19:18;10.33;;;8.37;;
8337;SDS011;4206;48.634;9.516;2023-05-16T12:21:46;11.43;;;8.10;;
8337;SDS011;4206;48.634;9.516;2023-05-16T12:24:13;11.57;;;8.10;;
8337;SDS011;4206;48.634;9.516;2023-05-16T12:26:40;13.03;;;8.70;;
8337;SDS011;4206;48.634;9.516;2023-05-16T12:29:08;12.23;;;8.30;;
8337;SDS011;4206;48.634;9.516;2023-05-16T12:31:37;9.73;;;8.10;;
8337;SDS011;4206;48.634;9.516;2023-05-16T12:36:50;11.23;;;8.87;;
8337;SDS011;4206;48.634;9.516;2023-05-16T12:39:18;12.43;;;9.60;;
8337;SDS011;4206;48.634;9.516;2023-05-16T12:41:46;11.90;;;9.83;;
8337;SDS011;4206;48.634;9.516;2023-05-16T12:44:16;12.20;;;9.80;;
8337;SDS011;4206;48.634;9.516;2023-05-16T12:46:45;16.57;;;11.30;;
8337;SDS011;4206;48.634;9.516;2023-05-16T12:49:18;13.20;;;10.37;;
8337;SDS011;4206;48.634;9.516;2023-05-16T12:51:47;15.10;;;11.77;;
8337;SDS011;4206;48.634;9.516;2023-05-16T12:54:15;16.30;;;11.47;;
8337;SDS011;4206;48.634;9.516;2023-05-16T12:56:43;16.30;;;12.17;;
8337;SDS011;4206;48.634;9.516;2023-05-16T12:59:10;16.80;;;12.00;;
8337;SDS011;4206;48.634;9.516;2023-05-16T13:01:38;15.43;;;12.60;;
8337;SDS011;4206;48.634;9.516;2023-05-16T13:04:06;17.37;;;11.70;;
8337;SDS011;4206;48.634;9.516;2023-05-16T13:06:33;17.60;;;11.77;;
8337;SDS011;4206;48.634;9.516;2023-05-16T13:09:20;16.10;;;12.00;;
8337;SDS011;4206;48.634;9.516;2023-05-16T13:11:48;16.53;;;12.50;;
8337;SDS011;4206;48.634;9.516;2023-05-16T13:14:15;14.40;;;11.23;;
8337;SDS011;4206;48.634;9.516;2023-05-16T13:16:43;18.30;;;12.33;;
8337;SDS011;4206;48.634;9.516;2023-05-16T13:19:10;14.60;;;11.10;;
8337;SDS011;4206;48.634;9.516;2023-05-16T13:21:37;14.23;;;10.87;;
8337;SDS011;4206;48.634;9.516;2023-05-16T13:24:04;18.30;;;11.73;;
8337;SDS011;4206;48.634;9.516;2023-05-16T13:26:31;17.00;;;11.90;;
8337;SDS011;4206;48.634;9.516;2023-05-16T13:28:59;13.70;;;10.90;;
8337;SDS011;4206;48.634;9.516;2023-05-16T13:31:27;16.40;;;11.20;;
8337;SDS011;4206;48.634;9.516;2023-05-16T13:33:54;12.97;;;10.90;;
8337;SDS011;4206;48.634;9.516;2023-05-16T13:36:21;13.47;;;10.63;;
8337;SDS011;4206;48.634;9.516;2023-05-16T13:38:48;15.67;;;11.70;;
8337;SDS011;4206;48.634;9.516;2023-05-16T13:41:15;14.80;;;10.50;;
8337;SDS011;4206;48.634;9.516;2023-05-16T13:43:42;13.87;;;10.80;;
8337;SDS011;4206;48.634;9.516;2023-05-16T13:46:08;15.73;;;10.97;;
8337;SDS011;4206;48.634;9.516;2023-05-16T13:48:35;19.03;;;11.20;;
8337;SDS011;4206;48.634;9.516;2023-05-16T13:51:02;13.53;;;10.23;;
8337;SDS011;4206;48.634;9.516;2023-05-16T13:53:29;16.93;;;10.60;;
8337;SDS011;4206;48.634;9.516;2023-05-16T13:55:56;13.80;;;9.53;;
8337;SDS011;4206;48.634;9.516;2023-05-16T13:58:23;12.23;;;10.10;;
8337;SDS011;4206;48.634;9.516;2023-05-16T14:00:50;11.47;;;8.40;;
8337;SDS011;4206;48.634;9.516;2023-05-16T14:03:18;9.73;;;8.03;;
8337;SDS011;4206;48.634;9.516;2023-05-16T14:05:45;12.50;;;7.70;;
8337;SDS011;4206;48.634;9.516;2023-05-16T14:08:13;11.73;;;6.80;;
8337;SDS011;4206;48.634;9.516;2023-05-16T14:10:40;9.60;;;6.63;;
8337;SDS011;4206;48.634;9.516;2023-05-16T14:13:07;8.13;;;6.50;;
8337;SDS011;4206;48.634;9.516;2023-05-16T14:15:34;8.77;;;6.70;;
8337;SDS011;4206;48.634;9.516;2023-05-16T14:18:01;7.90;;;6.00;;
8337;SDS011;4206;48.634;9.516;2023-05-16T14:20:30;10.80;;;6.00;;
8337;SDS011;4206;48.634;9.516;2023-05-16T14:22:57;10.13;;;5.90;;
8337;SDS011;4206;48.634;9.516;2023-05-16T14:25:24;5.97;;;4.70;;
8337;SDS011;4206;48.634;9.516;2023-05-16T14:27:51;6.03;;;5.20;;
8337;SDS011;4206;48.634;9.516;2023-05-16T14:30:18;8.27;;;4.20;;
8337;SDS011;4206;48.634;9.516;2023-05-16T14:32:45;4.90;;;4.13;;
8337;SDS011;4206;48.634;9.516;2023-05-16T14:35:12;5.70;;;4.23;;
8337;SDS011;4206;48.634;9.516;2023-05-16T14:37:40;4.73;;;3.73;;
8337;SDS011;4206;48.634;9.516;2023-05-16T14:40:07;8.53;;;4.70;;
8337;SDS011;4206;48.634;9.516;2023-05-16T14:42:34;6.70;;;4.43;;
8337;SDS011;4206;48.634;9.516;2023-05-16T14:45:01;6.13;;;4.40;;
8337;SDS011;4206;48.634;9.516;2023-05-16T14:47:28;5.63;;;4.50;;
8337;SDS011;4206;48.634;9.516;2023-05-16T14:49:56;5.73;;;4.40;;
8337;SDS011;4206;48.634;9.516;2023-05-16T14:52:23;5.60;;;4.80;;
8337;SDS011;4206;48.634;9.516;2023-05-16T14:54:50;9.33;;;4.10;;
8337;SDS011;4206;48.634;9.516;2023-05-16T14:57:17;4.87;;;4.23;;
8337;SDS011;4206;48.634;9.516;2023-05-16T14:59:44;4.90;;;4.30;;
8337;SDS011;4206;48.634;9.516;2023-05-16T15:02:12;4.40;;;3.90;;
8337;SDS011;4206;48.634;9.516;2023-05-16T15:04:39;5.43;;;3.97;;
8337;SDS011;4206;48.634;9.516;2023-05-16T15:07:09;7.30;;;4.50;;
8337;SDS011;4206;48.634;9.516;2023-05-16T15:09:36;4.30;;;3.50;;
8337;SDS011;4206;48.634;9.516;2023-05-16T15:12:03;5.40;;;4.40;;
8337;SDS011;4206;48.634;9.516;2023-05-16T15:14:30;3.93;;;3.50;;
8337;SDS011;4206;48.634;9.516;2023-05-16T15:16:58;5.03;;;3.83;;
8337;SDS011;4206;48.634;9.516;2023-05-16T15:19:25;4.50;;;3.60;;
8337;SDS011;4206;48.634;9.516;2023-05-16T15:21:52;5.73;;;4.00;;
8337;SDS011;4206;48.634;9.516;2023-05-16T15:24:19;7.13;;;3.70;;
8337;SDS011;4206;48.634;9.516;2023-05-16T15:26:46;5.90;;;3.87;;
8337;SDS011;4206;48.634;9.516;2023-05-16T15:29:13;4.20;;;3.80;;
8337;SDS011;4206;48.634;9.516;2023-05-16T15:31:40;5.00;;;3.83;;
8337;SDS011;4206;48.634;9.516;2023-05-16T15:34:07;6.13;;;4.43;;
8337;SDS011;4206;48.634;9.516;2023-05-16T15:36:34;5.80;;;4.17;;
8337;SDS011;4206;48.634;9.516;2023-05-16T15:39:01;5.40;;;4.43;;
8337;SDS011;4206;48.634;9.516;2023-05-16T15:41:28;5.37;;;4.40;;
8337;SDS011;4206;48.634;9.516;2023-05-16T15:44:15;3.73;;;3.33;;
8337;SDS011;4206;48.634;9.516;2023-05-16T15:46:42;4.87;;;3.60;;
8337;SDS011;4206;48.634;9.516;2023-05-16T15:49:09;4.70;;;3.50;;
8337;SDS011;4206;48.634;9.516;2023-05-16T15:51:37;5.00;;;3.80;;
8337;SDS011;4206;48.634;9.516;2023-05-16T15:54:04;5.10;;;4.00;;
8337;SDS011;4206;48.634;9.516;2023-05-16T15:56:33;8.13;;;3.93;;
8337;SDS011;4206;48.634;9.516;2023-05-16T15:59:00;3.73;;;3.33;;
8337;SDS011;4206;48.634;9.516;2023-05-16T16:01:26;3.73;;;3.20;;
8337;SDS011;4206;48.634;9.516;2023-05-16T16:03:53;2.87;;;2.67;;
8337;SDS011;4206;48.634;9.516;2023-05-16T16:06:21;3.00;;;2.80;;
8337;SDS011;4206;48.634;9.516;2023-05-16T16:08:48;3.07;;;2.77;;
8337;SDS011;4206;48.634;9.516;2023-05-16T16:11:15;3.03;;;2.47;;
8337;SDS011;4206;48.634;9.516;2023-05-16T16:13:41;3.07;;;2.10;;
8337;SDS011;4206;48.634;9.516;2023-05-16T16:16:09;2.20;;;2.00;;
8337;SDS011;4206;48.634;9.516;2023-05-16T16:18:36;3.10;;;2.53;;
8337;SDS011;4206;48.634;9.516;2023-05-16T16:21:03;1.60;;;1.33;;
8337;SDS011;4206;48.634;9.516;2023-05-16T16:23:30;2.00;;;1.80;;
8337;SDS011;4206;48.634;9.516;2023-05-16T16:25:57;1.67;;;1.47;;
8337;SDS011;4206;48.634;9.516;2023-05-16T16:28:24;2.00;;;1.80;;
8337;SDS011;4206;48.634;9.516;2023-05-16T16:30:51;2.13;;;1.77;;
8337;SDS011;4206;48.634;9.516;2023-05-16T16:33:18;2.03;;;1.87;;
8337;SDS011;4206;48.634;9.516;2023-05-16T16:35:45;2.40;;;1.97;;
8337;SDS011;4206;48.634;9.516;2023-05-16T16:38:12;2.53;;;1.70;;
8337;SDS011;4206;48.634;9.516;2023-05-16T16:40:39;2.10;;;1.43;;
8337;SDS011;4206;48.634;9.516;2023-05-16T16:43:06;1.30;;;1.20;;
8337;SDS011;4206;48.634;9.516;2023-05-16T16:45:33;2.53;;;1.30;;
8337;SDS011;4206;48.634;9.516;2023-05-16T16:48:00;3.40;;;1.37;;
8337;SDS011;4206;48.634;9.516;2023-05-16T16:50:27;1.33;;;1.13;;
8337;SDS011;4206;48.634;9.516;2023-05-16T16:52:56;4.57;;;1.60;;
8337;SDS011;4206;48.634;9.516;2023-05-16T16:55:25;1.80;;;1.50;;
8337;SDS011;4206;48.634;9.516;2023-05-16T16:57:52;3.57;;;1.50;;
8337;SDS011;4206;48.634;9.516;2023-05-16T17:00:19;4.00;;;1.23;;